createdAt,value
2018-06-03T00:04:20.888Z,2.77
2018-06-03T00:09:23.484Z,2.70
2018-06-03T00:14:26.148Z,2.33
2018-06-03T00:19:28.945Z,2.50
2018-06-03T00:24:31.557Z,2.70
2018-06-03T00:29:34.095Z,3.17
2018-06-03T00:34:36.695Z,3.13
2018-06-03T00:39:39.245Z,2.80
2018-06-03T00:44:41.846Z,3.30
2018-06-03T00:49:44.377Z,2.50
2018-06-03T00:54:46.950Z,2.70
2018-06-03T00:59:49.472Z,2.97
2018-06-03T01:04:52.035Z,3.00
2018-06-03T01:09:54.666Z,2.80
2018-06-03T01:14:57.223Z,3.30
2018-06-03T01:19:59.769Z,2.80
2018-06-03T01:25:02.337Z,3.10
2018-06-03T01:30:04.922Z,3.23
2018-06-03T01:35:07.478Z,3.10
2018-06-03T01:40:10.053Z,3.03
2018-06-03T01:45:12.612Z,3.23
2018-06-03T01:50:15.177Z,2.90
2018-06-03T01:55:17.752Z,2.70
2018-06-03T02:00:20.353Z,2.97
2018-06-03T02:05:22.894Z,2.80
2018-06-03T02:10:25.446Z,3.23
2018-06-03T02:15:28.189Z,2.97
2018-06-03T02:20:30.739Z,2.57
2018-06-03T02:25:33.325Z,3.07
2018-06-03T02:30:35.868Z,2.80
2018-06-03T02:35:38.433Z,2.70
2018-06-03T02:40:40.983Z,2.90
2018-06-03T02:45:43.643Z,2.87
2018-06-03T02:50:46.209Z,3.60
2018-06-03T02:55:49.531Z,2.63
2018-06-03T03:00:52.097Z,3.40
2018-06-03T03:05:54.628Z,3.30
2018-06-03T03:10:57.180Z,3.03
2018-06-03T03:15:59.770Z,3.50
2018-06-03T03:21:02.434Z,3.60
2018-06-03T03:26:05.012Z,3.40
2018-06-03T03:31:07.596Z,3.50
2018-06-03T03:36:10.134Z,3.67
2018-06-03T03:41:12.662Z,3.27
2018-06-03T03:46:15.381Z,3.10
2018-06-03T03:51:17.941Z,3.50
2018-06-03T03:56:20.468Z,3.50
2018-06-03T04:01:23.029Z,3.37
2018-06-03T04:06:25.574Z,4.23
2018-06-03T04:11:28.117Z,4.10
2018-06-03T04:16:30.686Z,4.17
2018-06-03T04:21:33.258Z,4.10
2018-06-03T04:26:35.808Z,4.27
2018-06-03T04:31:38.418Z,4.57
2018-06-03T04:36:40.975Z,4.10
2018-06-03T04:41:43.627Z,3.80
2018-06-03T04:46:46.179Z,3.73
2018-06-03T04:51:49.590Z,3.77
2018-06-03T04:56:52.151Z,5.00
2018-06-03T05:01:54.695Z,3.90
2018-06-03T05:06:57.258Z,4.23
2018-06-03T05:11:59.805Z,3.97
2018-06-03T05:17:02.392Z,4.50
2018-06-03T05:22:04.949Z,3.80
2018-06-03T05:27:07.533Z,3.83
2018-06-03T05:32:10.063Z,3.83
2018-06-03T05:37:12.644Z,4.00
2018-06-03T05:42:15.219Z,3.60
2018-06-03T05:47:17.877Z,3.40
2018-06-03T05:52:20.580Z,2.77
2018-06-03T05:57:23.929Z,3.80
2018-06-03T06:02:26.456Z,3.30
2018-06-03T06:07:29.054Z,3.37
2018-06-03T06:12:31.662Z,3.67
2018-06-03T06:17:35.382Z,2.90
2018-06-03T06:22:37.962Z,3.30
2018-06-03T06:27:40.509Z,3.20
2018-06-03T06:32:43.046Z,2.67
2018-06-03T06:37:45.587Z,2.50
2018-06-03T06:42:48.161Z,2.57
2018-06-03T06:47:50.745Z,3.47
2018-06-03T06:52:53.310Z,2.80
2018-06-03T06:57:55.915Z,3.40
2018-06-03T07:02:58.640Z,2.90
2018-06-03T07:08:01.238Z,2.90
2018-06-03T07:13:03.887Z,2.60
2018-06-03T07:18:06.437Z,3.03
2018-06-03T07:23:08.967Z,2.90
2018-06-03T07:28:11.523Z,2.73
2018-06-03T07:33:14.120Z,2.83
2018-06-03T07:38:16.769Z,2.77
2018-06-03T07:43:19.306Z,2.50
2018-06-03T07:48:21.861Z,2.90
2018-06-03T07:53:24.464Z,2.57
2018-06-03T07:58:27.029Z,2.27
2018-06-03T08:03:29.651Z,2.53
2018-06-03T08:08:32.248Z,2.77
2018-06-03T08:13:34.818Z,2.60
2018-06-03T08:18:37.377Z,3.00
2018-06-03T08:23:39.939Z,2.20
2018-06-03T08:28:42.499Z,2.40
2018-06-03T08:33:45.221Z,3.30
2018-06-03T08:38:47.770Z,2.30
2018-06-03T08:43:50.382Z,2.30
2018-06-03T08:48:52.961Z,2.50
2018-06-03T08:53:56.331Z,2.27
2018-06-03T08:58:58.945Z,1.63
2018-06-03T09:04:01.509Z,2.00
2018-06-03T09:09:04.133Z,2.10
2018-06-03T09:14:06.721Z,1.90
2018-06-03T09:19:09.381Z,2.10
2018-06-03T09:24:12.010Z,2.00
2018-06-03T09:29:14.594Z,2.33
2018-06-03T09:34:17.170Z,2.20
2018-06-03T09:39:20.516Z,1.47
2018-06-03T09:44:23.073Z,2.33
2018-06-03T09:49:25.624Z,1.70
2018-06-03T09:54:28.200Z,2.27
2018-06-03T09:59:30.771Z,2.30
2018-06-03T10:04:33.358Z,1.70
2018-06-03T10:09:35.938Z,1.40
2018-06-03T10:14:38.660Z,1.30
2018-06-03T10:19:41.285Z,1.73
2018-06-03T10:24:44.061Z,1.47
2018-06-03T10:29:46.633Z,1.60
2018-06-03T10:34:49.281Z,1.70
2018-06-03T10:39:51.833Z,1.60
2018-06-03T10:44:54.569Z,1.37
2018-06-03T10:49:57.123Z,1.73
2018-06-03T10:54:59.717Z,1.67
2018-06-03T11:00:02.302Z,1.60
2018-06-03T11:05:05.053Z,1.63
2018-06-03T11:10:07.658Z,1.97
2018-06-03T11:15:10.219Z,1.37
2018-06-03T11:20:12.791Z,1.70
2018-06-03T11:25:15.366Z,1.50
2018-06-03T11:30:17.923Z,1.50
2018-06-03T11:35:20.479Z,1.40
2018-06-03T11:40:23.017Z,1.40
2018-06-03T11:45:25.783Z,1.60
2018-06-03T11:50:28.449Z,1.83
2018-06-03T11:55:31.119Z,1.40
2018-06-03T12:00:33.755Z,1.47
2018-06-03T12:05:37.177Z,1.40
2018-06-03T12:10:39.791Z,1.20
2018-06-03T12:15:42.373Z,1.67
2018-06-03T12:20:45.004Z,1.60
2018-06-03T12:25:47.837Z,1.50
2018-06-03T12:30:50.774Z,1.63
2018-06-03T12:35:53.513Z,1.20
2018-06-03T12:40:56.439Z,1.50
2018-06-03T12:45:59.237Z,1.50
2018-06-03T12:51:02.801Z,1.93
2018-06-03T12:56:05.391Z,1.90
2018-06-03T13:01:08.299Z,1.67
2018-06-03T13:06:10.973Z,1.50
2018-06-03T13:11:13.528Z,1.30
2018-06-03T13:16:16.284Z,1.37
2018-06-03T13:21:18.997Z,1.20
2018-06-03T13:26:21.550Z,1.30
2018-06-03T13:31:24.143Z,1.40
2018-06-03T13:36:26.828Z,1.40
2018-06-03T13:41:29.404Z,1.40
2018-06-03T13:46:32.152Z,1.17
2018-06-03T13:51:34.710Z,1.40
2018-06-03T13:56:37.497Z,1.60
2018-06-03T14:01:42.749Z,1.23
2018-06-03T14:06:45.443Z,1.10
2018-06-03T14:11:48.810Z,1.30
2018-06-03T14:16:52.103Z,1.20
2018-06-03T14:21:54.657Z,1.30
2018-06-03T14:26:57.206Z,1.10
2018-06-03T14:32:00.210Z,1.30
2018-06-03T14:37:02.931Z,1.47
2018-06-03T14:42:05.779Z,1.50
2018-06-03T14:47:08.353Z,1.37
2018-06-03T14:52:11.012Z,1.73
2018-06-03T14:57:13.612Z,1.83
2018-06-03T15:02:16.121Z,1.40
2018-06-03T15:07:18.811Z,1.13
2018-06-03T15:12:22.330Z,1.17
2018-06-03T15:17:24.911Z,1.50
2018-06-03T15:22:27.552Z,1.80
2018-06-03T15:27:30.174Z,1.03
2018-06-03T15:32:32.967Z,1.60
2018-06-03T15:37:35.537Z,1.80
2018-06-03T15:42:38.409Z,1.20
2018-06-03T15:47:41.821Z,1.63
2018-06-03T15:52:44.396Z,1.50
2018-06-03T15:57:46.945Z,1.30
2018-06-03T16:02:49.570Z,1.67
2018-06-03T16:07:52.067Z,1.27
2018-06-03T16:12:54.605Z,1.20
2018-06-03T16:17:57.153Z,1.23
2018-06-03T16:22:59.690Z,1.23
2018-06-03T16:28:02.545Z,1.50
2018-06-03T16:33:05.093Z,1.30
2018-06-03T16:38:07.683Z,1.60
2018-06-03T16:43:10.376Z,1.20
2018-06-03T16:48:13.030Z,1.00
2018-06-03T16:53:15.558Z,1.60
2018-06-03T16:58:18.177Z,1.30
2018-06-03T17:03:20.801Z,1.50
2018-06-03T17:08:23.395Z,2.30
2018-06-03T17:13:25.922Z,1.50
2018-06-03T17:18:28.562Z,1.50
2018-06-03T17:23:31.093Z,1.30
2018-06-03T17:28:33.648Z,1.47
2018-06-03T17:33:36.200Z,1.73
2018-06-03T17:38:38.724Z,1.70
2018-06-03T17:43:41.504Z,1.50
2018-06-03T17:48:44.270Z,1.50
2018-06-03T17:53:48.051Z,1.77
2018-06-03T17:58:50.921Z,1.50
2018-06-03T18:03:53.557Z,1.27
2018-06-03T18:08:56.162Z,1.80
2018-06-03T18:13:58.817Z,1.53
2018-06-03T18:19:04.149Z,1.60
2018-06-03T18:24:07.024Z,1.53
2018-06-03T18:29:09.713Z,1.60
2018-06-03T18:34:19.656Z,1.73
2018-06-03T18:39:22.652Z,1.77
2018-06-03T18:44:27.529Z,1.83
2018-06-03T18:49:30.360Z,1.70
2018-06-03T18:54:33.230Z,1.40
2018-06-03T18:59:37.360Z,1.67
2018-06-03T19:04:40.148Z,1.27
2018-06-03T19:09:42.898Z,1.50
2018-06-03T19:14:45.548Z,2.10
2018-06-03T19:19:48.943Z,2.00
2018-06-03T19:24:52.695Z,2.07
2018-06-03T19:29:57.201Z,2.20
2018-06-03T19:34:59.933Z,1.63
2018-06-03T19:40:02.632Z,2.20
2018-06-03T19:45:06.207Z,1.90
2018-06-03T19:50:09.651Z,2.17
2018-06-03T19:55:12.291Z,1.83
2018-06-03T20:00:15.220Z,2.40
2018-06-03T20:05:18.247Z,1.93
2018-06-03T20:10:21.322Z,2.30
2018-06-03T20:15:24.011Z,2.23
2018-06-03T20:20:26.863Z,2.47
2018-06-03T20:25:29.615Z,2.40
2018-06-03T20:30:32.550Z,2.00
2018-06-03T20:35:35.305Z,2.10
2018-06-03T20:40:38.123Z,3.10
2018-06-03T20:45:41.112Z,2.90
2018-06-03T20:50:44.028Z,1.93
2018-06-03T20:55:46.953Z,2.43
2018-06-03T21:00:50.642Z,2.70
2018-06-03T21:05:53.673Z,2.37
2018-06-03T21:10:56.719Z,2.70
2018-06-03T21:15:59.953Z,2.17
2018-06-03T21:21:03.388Z,3.00
2018-06-03T21:26:07.334Z,2.70
2018-06-03T21:31:10.201Z,2.60
2018-06-03T21:36:13.273Z,2.30
2018-06-03T21:41:16.735Z,2.73
2018-06-03T21:46:19.791Z,2.73
2018-06-03T21:51:23.201Z,2.13
2018-06-03T21:56:26.554Z,2.53
2018-06-03T22:01:29.583Z,3.00
2018-06-03T22:06:32.319Z,2.90
2018-06-03T22:11:35.808Z,2.73
2018-06-03T22:16:40.076Z,2.47
2018-06-03T22:21:57.506Z,2.83
2018-06-03T22:27:00.424Z,3.37
2018-06-03T22:32:03.466Z,3.60
2018-06-03T22:37:06.741Z,3.40
2018-06-03T22:42:10.137Z,3.90
2018-06-03T22:47:13.023Z,2.83
2018-06-03T22:52:15.923Z,3.57
2018-06-03T22:57:18.833Z,3.77
2018-06-03T23:02:22.569Z,3.70
2018-06-03T23:07:25.112Z,3.67
2018-06-03T23:12:28.489Z,3.87
2018-06-03T23:17:31.972Z,3.90
2018-06-03T23:22:35.601Z,4.37
2018-06-03T23:27:38.634Z,3.73
2018-06-03T23:32:41.852Z,3.93
2018-06-03T23:37:44.990Z,4.47
2018-06-03T23:42:48.355Z,4.30
2018-06-03T23:47:51.662Z,3.67
2018-06-03T23:52:55.945Z,4.07
2018-06-03T23:57:59.013Z,4.97
